createdAt,value
2023-03-17T00:08:23.285Z,46.54
2023-03-17T00:18:23.602Z,47.67
2023-03-17T00:28:23.946Z,48.51
2023-03-17T00:38:23.980Z,48.84
2023-03-17T00:48:24.004Z,48.10
2023-03-17T00:58:24.441Z,49.35
2023-03-17T01:08:24.728Z,48.61
2023-03-17T01:18:24.639Z,45.62
2023-03-17T01:28:24.886Z,42.28
2023-03-17T01:38:25.075Z,43.40
2023-03-17T01:48:25.109Z,44.24
2023-03-17T01:58:25.448Z,46.23
2023-03-17T02:08:25.487Z,46.64
2023-03-17T02:18:25.927Z,46.56
2023-03-17T02:28:26.044Z,46.54
2023-03-17T02:38:26.333Z,45.62
2023-03-17T02:48:26.410Z,45.09
2023-03-17T02:58:26.562Z,45.60
2023-03-17T03:08:26.605Z,45.80
2023-03-17T03:18:26.949Z,44.35
2023-03-17T03:28:26.967Z,52.59
2023-03-17T03:38:27.310Z,59.66
2023-03-17T03:48:27.341Z,64.96
2023-03-17T03:58:27.778Z,67.40
2023-03-17T04:08:27.820Z,68.43
2023-03-17T04:18:29.378Z,69.98
2023-03-17T04:28:28.214Z,72.91
2023-03-17T04:38:28.522Z,74.60
2023-03-17T04:48:28.537Z,75.98
2023-03-17T04:58:31.129Z,76.40
2023-03-17T05:08:28.953Z,77.01
2023-03-17T05:18:29.794Z,77.95
2023-03-17T05:28:29.443Z,77.33
2023-03-17T05:38:31.691Z,77.84
2023-03-17T05:48:29.876Z,78.78
2023-03-17T05:58:30.151Z,78.99
2023-03-17T06:08:31.435Z,78.57
2023-03-17T06:18:30.166Z,79.40
2023-03-17T06:28:30.203Z,79.91
2023-03-17T06:38:30.578Z,80.74
2023-03-17T06:48:30.609Z,81.12
2023-03-17T06:58:30.984Z,81.02
2023-03-17T07:08:31.191Z,80.71
2023-03-17T07:18:31.300Z,79.25
2023-03-17T07:28:31.330Z,76.94
2023-03-17T07:38:31.645Z,76.04
2023-03-17T07:48:31.692Z,73.57
2023-03-17T07:58:32.453Z,69.56
2023-03-17T08:08:32.087Z,66.79
2023-03-17T08:18:32.428Z,66.11
2023-03-17T08:28:32.475Z,64.82
2023-03-17T08:38:32.786Z,63.90
2023-03-17T08:48:32.817Z,61.66
2023-03-17T08:58:33.148Z,60.52
2023-03-17T09:08:33.201Z,59.67
2023-03-17T09:18:33.495Z,57.20
2023-03-17T09:28:33.522Z,56.37
2023-03-17T09:38:33.898Z,56.02
2023-03-17T09:48:33.919Z,56.12
2023-03-17T09:58:34.237Z,52.98
2023-03-17T10:08:34.558Z,53.70
2023-03-17T10:18:34.400Z,53.75
2023-03-17T10:28:34.635Z,53.93
2023-03-17T10:38:34.876Z,52.03
2023-03-17T10:48:35.103Z,50.68
2023-03-17T10:58:35.448Z,48.71
2023-03-17T11:08:35.511Z,49.90
2023-03-17T11:18:37.774Z,46.64
2023-03-17T11:28:35.813Z,46.84
2023-03-17T11:38:36.104Z,47.08
2023-03-17T11:48:36.145Z,47.16
2023-03-17T11:58:36.466Z,49.46
2023-03-17T12:08:36.488Z,43.91
2023-03-17T12:18:36.832Z,42.47
2023-03-17T12:28:36.867Z,44.90
2023-03-17T12:38:37.219Z,43.30
2023-03-17T12:48:37.243Z,42.74
2023-03-17T12:58:37.578Z,43.73
2023-03-17T13:08:37.592Z,41.67
2023-03-17T13:18:37.944Z,41.69
2023-03-17T13:28:37.973Z,41.11
2023-03-17T13:38:39.242Z,41.06
2023-03-17T13:48:38.524Z,41.13
2023-03-17T13:58:38.798Z,42.35
2023-03-17T14:08:38.830Z,41.19
2023-03-17T14:18:39.162Z,40.69
2023-03-17T14:28:39.245Z,43.73
2023-03-17T14:38:39.321Z,42.09
2023-03-17T14:48:39.349Z,42.84
2023-03-17T14:58:39.700Z,43.12
2023-03-17T15:08:39.730Z,44.59
2023-03-17T15:18:40.062Z,43.18
2023-03-17T15:28:40.084Z,42.18
2023-03-17T15:38:40.430Z,43.12
2023-03-17T15:48:40.613Z,41.36
2023-03-17T15:58:40.704Z,43.37
2023-03-17T16:08:40.799Z,45.43
2023-03-17T16:18:42.088Z,46.97
2023-03-17T16:28:41.158Z,47.31
2023-03-17T16:38:41.436Z,47.67
2023-03-17T16:48:41.460Z,48.99
2023-03-17T16:58:41.803Z,45.66
2023-03-17T17:08:42.139Z,42.90
2023-03-17T17:18:45.691Z,47.99
2023-03-17T17:28:42.277Z,52.37
2023-03-17T17:38:42.587Z,52.37
2023-03-17T17:48:42.614Z,54.36
2023-03-17T17:58:42.958Z,55.74
2023-03-17T18:08:42.892Z,57.04
2023-03-17T18:18:44.440Z,57.86
2023-03-17T18:28:43.381Z,56.30
2023-03-17T18:38:47.003Z,54.54
2023-03-17T18:48:43.980Z,55.00
2023-03-17T18:58:44.201Z,54.49
2023-03-17T19:08:44.358Z,55.82
2023-03-17T19:18:44.554Z,57.48
2023-03-17T19:28:44.777Z,61.03
2023-03-17T19:39:06.039Z,61.47
2023-03-17T19:48:45.240Z,58.19
2023-03-17T19:58:45.436Z,59.41
2023-03-17T20:08:45.397Z,62.13
2023-03-17T20:18:47.702Z,64.47
2023-03-17T20:28:45.875Z,65.01
2023-03-17T20:38:46.310Z,66.16
2023-03-17T20:48:46.260Z,66.91
2023-03-17T20:58:46.529Z,67.66
2023-03-17T21:08:46.729Z,66.81
2023-03-17T21:18:46.895Z,66.30
2023-03-17T21:28:47.142Z,66.22
2023-03-17T21:38:47.396Z,66.19
2023-03-17T21:48:47.310Z,69.60
2023-03-17T21:58:47.569Z,71.35
2023-03-17T22:08:48.148Z,71.35
2023-03-17T22:18:48.189Z,71.17
2023-03-17T22:28:48.216Z,70.25
2023-03-17T22:38:48.493Z,72.00
2023-03-17T22:48:48.538Z,73.06
2023-03-17T22:58:48.965Z,73.27
2023-03-17T23:08:48.998Z,73.81
2023-03-17T23:18:51.657Z,74.05
2023-03-17T23:28:50.255Z,75.01
2023-03-17T23:38:49.554Z,76.28
2023-03-17T23:48:49.798Z,73.95
2023-03-17T23:58:49.891Z,75.42
